Terminal Aerodrome Forecast
Issued by NWS Twin Cities, MN

Home | Current Version | Previous Version | Graphics & Text | Print | Product List | Glossary On
Versions: 1 2 3 4 5 6 7 8 9 10 11 12 13 14 15 16 17 18 19 20 21 22 23 24 25
986
FTUS43 KMPX 081739
TAFMSP
TAF
KMSP 081739Z 0818/0924 32018G26KT 5SM -SN BLSN BKN025 BKN040
     FM090000 32018G26KT 6SM BLSN BKN025
     FM090600 32015G22KT P6SM BKN035
     FM090900 32014G22KT P6SM SCT250
     FM091500 32012G20KT P6SM SCT035=

USA.gov is the U.S. government's official web portal to all federal, state and local government web resources and services.